createdAt,value
2022-12-13T00:01:56.976Z,2.20
2022-12-13T00:04:25.409Z,0.90
2022-12-13T00:06:54.356Z,1.70
2022-12-13T00:09:21.857Z,2.77
2022-12-13T00:11:49.986Z,1.70
2022-12-13T00:14:17.892Z,1.17
2022-12-13T00:16:49.997Z,1.17
2022-12-13T00:19:20.464Z,1.17
2022-12-13T00:21:47.959Z,0.97
2022-12-13T00:24:15.057Z,2.77
2022-12-13T00:26:42.295Z,0.77
2022-12-13T00:29:10.965Z,2.27
2022-12-13T00:32:00.215Z,0.90
2022-12-13T00:34:26.011Z,2.23
2022-12-13T00:37:01.048Z,0.87
2022-12-13T00:39:28.850Z,1.63
2022-12-13T00:41:56.279Z,1.13
2022-12-13T00:44:23.977Z,1.30
2022-12-13T00:46:51.961Z,1.80
2022-12-13T00:49:19.910Z,1.07
2022-12-13T00:51:49.670Z,1.57
2022-12-13T00:54:17.489Z,0.77
2022-12-13T00:56:44.561Z,1.43
2022-12-13T00:59:15.209Z,3.47
2022-12-13T01:01:42.335Z,1.13
2022-12-13T01:04:10.683Z,2.30
2022-12-13T01:06:45.267Z,1.67
2022-12-13T01:09:23.357Z,0.70
2022-12-13T01:11:50.908Z,1.77
2022-12-13T01:14:20.255Z,1.63
2022-12-13T01:16:47.453Z,1.60
2022-12-13T01:19:15.068Z,0.93
2022-12-13T01:21:42.168Z,2.50
2022-12-13T01:24:09.473Z,1.33
2022-12-13T01:26:36.568Z,1.97
2022-12-13T01:29:06.306Z,1.10
2022-12-13T01:31:33.939Z,1.77
2022-12-13T01:34:00.985Z,1.40
2022-12-13T01:36:28.530Z,2.43
2022-12-13T01:38:58.615Z,1.33
2022-12-13T01:41:28.437Z,1.77
2022-12-13T01:44:52.965Z,2.13
2022-12-13T01:47:28.949Z,2.50
2022-12-13T01:50:02.008Z,2.27
2022-12-13T01:52:33.961Z,1.77
2022-12-13T01:55:04.749Z,1.63
2022-12-13T01:57:36.172Z,0.83
2022-12-13T02:00:07.448Z,2.73
2022-12-13T02:02:35.777Z,1.67
2022-12-13T02:05:11.673Z,1.53
2022-12-13T02:07:43.340Z,1.03
2022-12-13T02:10:11.033Z,1.23
2022-12-13T02:12:41.658Z,1.00
2022-12-13T02:15:16.488Z,1.50
2022-12-13T02:18:00.804Z,2.23
2022-12-13T02:20:57.489Z,2.63
2022-12-13T02:23:58.236Z,1.30
2022-12-13T02:26:54.806Z,1.57
2022-12-13T02:30:01.898Z,2.63
2022-12-13T02:32:57.652Z,1.50
2022-12-13T02:35:40.282Z,1.40
2022-12-13T02:38:56.761Z,1.13
2022-12-13T02:41:54.614Z,1.27
2022-12-13T02:44:28.716Z,1.30
2022-12-13T02:47:06.865Z,3.57
2022-12-13T02:49:47.191Z,1.30
2022-12-13T02:52:22.632Z,1.23
2022-12-13T02:54:54.679Z,1.83
2022-12-13T02:57:44.893Z,0.30
2022-12-13T03:00:21.432Z,1.70
2022-12-13T03:03:37.219Z,1.07
2022-12-13T03:06:47.041Z,1.97
2022-12-13T03:09:44.666Z,2.10
2022-12-13T03:12:40.720Z,1.53
2022-12-13T03:15:43.802Z,1.60
2022-12-13T03:18:24.108Z,2.43
2022-12-13T03:21:01.284Z,1.80
2022-12-13T03:23:28.796Z,2.53
2022-12-13T03:26:18.877Z,0.97
2022-12-13T03:28:46.049Z,2.47
2022-12-13T03:31:13.153Z,0.70
2022-12-13T03:33:40.277Z,1.60
2022-12-13T03:36:08.883Z,2.17
2022-12-13T03:38:37.389Z,1.40
2022-12-13T03:41:12.223Z,1.13
2022-12-13T03:43:40.557Z,0.50
2022-12-13T03:46:09.171Z,1.83
2022-12-13T03:48:36.603Z,1.20
2022-12-13T03:51:03.910Z,1.10
2022-12-13T03:53:34.126Z,0.97
2022-12-13T03:56:04.343Z,2.30
2022-12-13T03:58:35.839Z,0.53
2022-12-13T04:01:09.570Z,0.93
2022-12-13T04:03:38.769Z,1.57
2022-12-13T04:06:07.247Z,0.97
2022-12-13T04:08:36.801Z,1.67
2022-12-13T04:11:24.128Z,1.70
2022-12-13T04:13:52.555Z,0.37
2022-12-13T04:16:19.849Z,1.53
2022-12-13T04:18:47.012Z,0.60
2022-12-13T04:21:14.114Z,0.23
2022-12-13T04:23:41.161Z,0.77
2022-12-13T04:26:08.213Z,1.27
2022-12-13T04:28:35.276Z,2.30
2022-12-13T04:31:02.391Z,1.93
2022-12-13T04:33:29.494Z,1.10
2022-12-13T04:35:56.570Z,1.03
2022-12-13T04:38:23.584Z,2.27
2022-12-13T04:40:50.598Z,1.37
2022-12-13T04:43:17.586Z,1.80
2022-12-13T04:45:44.619Z,1.13
2022-12-13T04:48:11.741Z,1.87
2022-12-13T04:50:38.773Z,1.23
2022-12-13T04:53:05.810Z,1.07
2022-12-13T04:55:32.937Z,0.80
2022-12-13T04:57:59.980Z,0.60
2022-12-13T05:00:27.021Z,0.30
2022-12-13T05:02:54.007Z,1.27
2022-12-13T05:05:20.989Z,0.70
2022-12-13T05:07:48.107Z,0.20
2022-12-13T05:10:31.944Z,0.30
2022-12-13T05:13:03.014Z,0.20
2022-12-13T05:15:33.213Z,0.77
2022-12-13T05:18:10.089Z,1.00
2022-12-13T05:20:39.905Z,0.43
2022-12-13T05:23:07.372Z,0.40
2022-12-13T05:25:37.234Z,2.13
2022-12-13T05:28:08.790Z,0.93
2022-12-13T05:30:39.994Z,1.47
2022-12-13T05:33:07.657Z,0.60
2022-12-13T05:35:34.796Z,1.30
2022-12-13T05:38:02.151Z,1.43
2022-12-13T05:40:32.172Z,0.57
2022-12-13T05:43:01.040Z,0.60
2022-12-13T05:45:31.331Z,0.13
2022-12-13T05:47:59.223Z,1.00
2022-12-13T05:50:26.873Z,0.33
2022-12-13T05:52:53.994Z,0.37
2022-12-13T05:55:21.171Z,0.87
2022-12-13T05:57:50.649Z,0.80
2022-12-13T06:00:28.733Z,0.53
2022-12-13T06:03:01.294Z,0.60
2022-12-13T06:05:30.826Z,0.87
2022-12-13T06:07:58.840Z,0.77
2022-12-13T06:10:34.833Z,0.70
2022-12-13T06:13:20.972Z,0.23
2022-12-13T06:15:48.656Z,1.00
2022-12-13T06:18:15.772Z,1.93
2022-12-13T06:20:42.950Z,0.63
2022-12-13T06:23:10.273Z,0.50
2022-12-13T06:25:37.634Z,0.30
2022-12-13T06:28:05.019Z,0.00
2022-12-13T06:30:32.315Z,0.53
2022-12-13T06:33:02.438Z,1.03
2022-12-13T06:35:30.482Z,0.37
2022-12-13T06:38:01.226Z,1.20
2022-12-13T06:40:30.853Z,1.40
2022-12-13T06:42:58.151Z,1.33
2022-12-13T06:45:26.241Z,0.73
2022-12-13T06:47:53.411Z,1.60
2022-12-13T06:50:20.454Z,0.50
2022-12-13T06:52:47.932Z,0.60
2022-12-13T06:55:15.315Z,1.33
2022-12-13T06:57:52.015Z,0.43
2022-12-13T07:00:22.248Z,0.70
2022-12-13T07:02:56.954Z,0.43
2022-12-13T07:05:25.198Z,1.23
2022-12-13T07:07:52.416Z,0.83
2022-12-13T07:10:22.417Z,1.30
2022-12-13T07:12:50.802Z,1.07
2022-12-13T07:15:18.037Z,0.77
2022-12-13T07:17:45.105Z,1.20
2022-12-13T07:20:14.233Z,0.40
2022-12-13T07:22:47.844Z,0.90
2022-12-13T07:25:27.596Z,0.10
2022-12-13T07:28:01.380Z,0.73
2022-12-13T07:30:33.835Z,1.50
2022-12-13T07:33:06.148Z,1.17
2022-12-13T07:35:36.981Z,1.00
2022-12-13T07:38:06.155Z,0.27
2022-12-13T07:40:38.502Z,0.83
2022-12-13T07:43:07.109Z,0.73
2022-12-13T07:45:34.538Z,0.20
2022-12-13T07:48:06.128Z,0.47
2022-12-13T07:50:37.244Z,0.50
2022-12-13T07:53:09.321Z,0.50
2022-12-13T07:55:38.136Z,0.50
2022-12-13T07:58:14.987Z,1.27
2022-12-13T08:00:46.861Z,0.93
2022-12-13T08:03:25.757Z,0.53
2022-12-13T08:06:10.556Z,0.20
2022-12-13T08:08:38.884Z,0.37
2022-12-13T08:11:09.808Z,1.00
2022-12-13T08:13:38.781Z,0.40
2022-12-13T08:16:26.383Z,0.77
2022-12-13T08:19:02.938Z,0.30
2022-12-13T08:21:58.301Z,0.93
2022-12-13T08:24:29.019Z,0.40
2022-12-13T08:27:02.912Z,0.20
2022-12-13T08:29:35.628Z,0.97
2022-12-13T08:32:13.033Z,0.10
2022-12-13T08:34:41.654Z,0.50
2022-12-13T08:37:08.926Z,0.20
2022-12-13T08:39:38.324Z,0.20
2022-12-13T08:42:20.434Z,0.53
2022-12-13T08:44:53.501Z,0.30
2022-12-13T08:47:25.953Z,0.50
2022-12-13T08:50:01.513Z,0.10
2022-12-13T08:52:40.355Z,0.27
2022-12-13T08:55:13.603Z,0.53
2022-12-13T08:57:42.664Z,0.53
2022-12-13T09:00:17.780Z,0.77
2022-12-13T09:02:45.214Z,0.33
2022-12-13T09:05:13.232Z,1.07
2022-12-13T09:08:02.928Z,0.60
2022-12-13T09:10:38.114Z,0.83
2022-12-13T09:13:11.481Z,0.43
2022-12-13T09:15:45.908Z,0.47
2022-12-13T09:18:15.139Z,0.00
2022-12-13T09:20:51.452Z,0.30
2022-12-13T09:23:23.407Z,0.20
2022-12-13T09:26:05.160Z,0.33
2022-12-13T09:28:37.058Z,0.23
2022-12-13T09:31:14.044Z,0.40
2022-12-13T09:33:42.181Z,0.80
2022-12-13T09:36:14.687Z,0.73
2022-12-13T09:38:41.894Z,0.10
2022-12-13T09:41:20.284Z,1.20
2022-12-13T09:43:54.533Z,0.33
2022-12-13T09:46:45.116Z,0.97
2022-12-13T09:49:35.334Z,0.17
2022-12-13T09:52:10.244Z,1.43
2022-12-13T09:54:48.264Z,0.33
2022-12-13T09:57:31.133Z,0.47
2022-12-13T10:00:07.375Z,1.23
2022-12-13T10:02:44.747Z,0.87
2022-12-13T10:05:38.555Z,0.97
2022-12-13T10:08:23.015Z,0.57
2022-12-13T10:10:53.255Z,0.23
2022-12-13T10:13:32.127Z,0.53
2022-12-13T10:16:12.766Z,0.77
2022-12-13T10:18:43.876Z,0.73
2022-12-13T10:21:19.016Z,0.77
2022-12-13T10:24:23.246Z,1.40
2022-12-13T10:26:38.789Z,0.23
2022-12-13T10:29:07.560Z,0.90
2022-12-13T10:32:12.608Z,0.93
2022-12-13T10:34:39.679Z,0.90
2022-12-13T10:37:31.422Z,0.67
2022-12-13T10:39:59.457Z,0.63
2022-12-13T10:42:32.159Z,0.50
2022-12-13T10:45:23.612Z,1.20
2022-12-13T10:47:51.489Z,0.97
2022-12-13T10:50:29.939Z,0.70
2022-12-13T10:53:00.653Z,0.67
2022-12-13T10:55:35.360Z,0.20
2022-12-13T10:58:19.887Z,0.40
2022-12-13T11:00:49.351Z,0.77
2022-12-13T11:03:34.957Z,0.33
2022-12-13T11:06:18.192Z,0.73
2022-12-13T11:08:47.196Z,1.10
2022-12-13T11:11:18.818Z,0.20
2022-12-13T11:13:55.118Z,0.30
2022-12-13T11:16:41.847Z,1.03
2022-12-13T11:19:46.068Z,1.33
2022-12-13T11:22:31.137Z,0.80
2022-12-13T11:25:41.406Z,0.33
2022-12-13T11:28:58.029Z,0.63
2022-12-13T11:31:45.773Z,0.33
2022-12-13T11:34:56.276Z,0.47
2022-12-13T11:37:34.234Z,0.97
2022-12-13T11:40:15.593Z,0.20
2022-12-13T11:43:02.247Z,0.43
2022-12-13T11:45:42.967Z,0.70
2022-12-13T11:48:09.945Z,0.13
2022-12-13T11:50:43.949Z,1.23
2022-12-13T11:53:56.729Z,1.07
2022-12-13T11:56:44.579Z,0.93
2022-12-13T11:59:54.922Z,1.40
2022-12-13T12:02:44.603Z,0.87
2022-12-13T12:05:40.921Z,1.23
2022-12-13T12:08:43.625Z,0.57
2022-12-13T12:12:06.080Z,0.40
2022-12-13T12:14:53.017Z,1.17
2022-12-13T12:17:25.089Z,1.10
2022-12-13T12:19:59.030Z,1.23
2022-12-13T12:22:31.955Z,0.87
2022-12-13T12:25:13.108Z,1.53
2022-12-13T12:28:08.648Z,1.47
2022-12-13T12:31:09.952Z,0.77
2022-12-13T12:33:53.437Z,0.90
2022-12-13T12:36:36.616Z,1.30
2022-12-13T12:39:51.759Z,1.17
2022-12-13T12:43:13.739Z,2.10
2022-12-13T12:46:00.243Z,0.27
2022-12-13T12:49:29.462Z,1.13
2022-12-13T12:52:39.058Z,1.40
2022-12-13T12:55:33.799Z,0.40
2022-12-13T12:58:47.873Z,0.90
2022-12-13T13:02:12.351Z,0.93
2022-12-13T13:05:10.616Z,0.87
2022-12-13T13:07:51.222Z,0.37
2022-12-13T13:10:26.852Z,1.33
2022-12-13T13:13:11.926Z,0.70
2022-12-13T13:15:39.879Z,0.40
2022-12-13T13:18:51.043Z,1.27
2022-12-13T13:21:24.527Z,2.17
2022-12-13T13:24:15.040Z,1.87
2022-12-13T13:26:45.147Z,0.40
2022-12-13T13:29:28.449Z,1.00
2022-12-13T13:32:12.668Z,0.87
2022-12-13T13:35:31.875Z,1.17
2022-12-13T13:38:29.021Z,0.70
2022-12-13T13:40:56.098Z,1.13
2022-12-13T13:43:32.743Z,0.40
2022-12-13T13:46:03.282Z,0.63
2022-12-13T13:49:09.395Z,1.30
2022-12-13T13:52:26.603Z,0.73
2022-12-13T13:55:11.941Z,2.67
2022-12-13T13:58:10.409Z,0.87
2022-12-13T14:01:05.337Z,0.60
2022-12-13T14:03:50.377Z,0.50
2022-12-13T14:06:39.141Z,0.57
2022-12-13T14:10:05.765Z,0.50
2022-12-13T14:13:03.860Z,1.13
2022-12-13T14:15:58.586Z,0.43
2022-12-13T14:18:47.066Z,0.70
2022-12-13T14:21:27.046Z,0.20
2022-12-13T14:24:27.302Z,0.83
2022-12-13T14:27:20.909Z,0.47
2022-12-13T14:29:58.475Z,1.37
2022-12-13T14:32:30.817Z,0.60
2022-12-13T14:35:26.005Z,0.70
2022-12-13T14:38:25.326Z,0.37
2022-12-13T14:40:58.301Z,0.47
2022-12-13T14:43:33.644Z,1.20
2022-12-13T14:46:12.904Z,0.90
2022-12-13T14:48:51.293Z,0.67
2022-12-13T14:51:37.862Z,0.70
2022-12-13T14:54:08.036Z,0.30
2022-12-13T14:56:35.903Z,0.63
2022-12-13T14:59:18.120Z,1.63
2022-12-13T15:02:05.184Z,0.07
2022-12-13T15:04:38.077Z,0.50
2022-12-13T15:07:25.529Z,1.33
2022-12-13T15:10:02.514Z,0.37
2022-12-13T15:12:30.605Z,0.40
2022-12-13T15:15:03.580Z,1.03
2022-12-13T15:17:38.992Z,1.40
2022-12-13T15:20:31.923Z,1.63
2022-12-13T15:23:40.384Z,0.37
2022-12-13T15:26:27.582Z,2.07
2022-12-13T15:29:15.359Z,2.03
2022-12-13T15:31:42.687Z,0.63
2022-12-13T15:34:30.644Z,1.33
2022-12-13T15:37:29.208Z,2.43
2022-12-13T15:40:05.744Z,1.80
2022-12-13T15:42:38.304Z,0.93
2022-12-13T15:45:40.320Z,0.60
2022-12-13T15:48:18.110Z,1.07
2022-12-13T15:50:49.013Z,1.37
2022-12-13T15:53:32.862Z,2.73
2022-12-13T15:56:02.306Z,1.97
2022-12-13T15:58:42.160Z,1.87
2022-12-13T16:01:36.387Z,1.70
2022-12-13T16:04:23.887Z,1.17
2022-12-13T16:06:55.496Z,1.93
2022-12-13T16:09:31.634Z,2.30
2022-12-13T16:12:13.043Z,2.03
2022-12-13T16:14:48.566Z,1.87
2022-12-13T16:17:25.997Z,1.23
2022-12-13T16:19:54.912Z,1.87
2022-12-13T16:22:31.286Z,3.23
2022-12-13T16:25:02.845Z,1.47
2022-12-13T16:27:29.936Z,1.93
2022-12-13T16:30:10.091Z,0.57
2022-12-13T16:33:02.822Z,1.20
2022-12-13T16:35:27.570Z,1.90
2022-12-13T16:37:59.046Z,2.63
2022-12-13T16:40:31.210Z,2.80
2022-12-13T16:43:02.984Z,2.07
2022-12-13T16:45:42.785Z,2.43
2022-12-13T16:48:11.588Z,2.87
2022-12-13T16:50:43.813Z,2.30
2022-12-13T16:53:17.061Z,1.90
2022-12-13T16:55:45.594Z,2.60
2022-12-13T16:58:26.096Z,2.83
2022-12-13T17:00:58.295Z,2.90
2022-12-13T17:03:27.697Z,2.10
2022-12-13T17:05:58.592Z,1.63
2022-12-13T17:08:26.284Z,2.37
2022-12-13T17:10:58.180Z,4.37
2022-12-13T17:13:27.960Z,2.40
2022-12-13T17:15:59.222Z,3.30
2022-12-13T17:18:27.038Z,3.70
2022-12-13T17:20:58.814Z,3.37
2022-12-13T17:23:27.548Z,2.00
2022-12-13T17:25:58.217Z,4.27
2022-12-13T17:28:27.152Z,4.20
2022-12-13T17:30:54.687Z,2.80
2022-12-13T17:33:22.578Z,3.17
2022-12-13T17:35:50.660Z,3.23
2022-12-13T17:38:17.780Z,2.70
2022-12-13T17:40:47.556Z,2.60
2022-12-13T17:43:32.927Z,3.03
2022-12-13T17:46:09.070Z,4.10
2022-12-13T17:48:40.797Z,3.00
2022-12-13T17:51:12.539Z,2.13
2022-12-13T17:53:43.231Z,2.63
2022-12-13T17:56:15.886Z,3.53
2022-12-13T17:58:43.997Z,2.20
2022-12-13T18:01:21.297Z,2.97
2022-12-13T18:03:52.494Z,2.97
2022-12-13T18:06:20.031Z,2.47
2022-12-13T18:08:47.489Z,2.77
2022-12-13T18:11:34.351Z,2.73
2022-12-13T18:14:08.614Z,2.30
2022-12-13T18:16:38.524Z,2.07
2022-12-13T18:19:13.516Z,2.87
2022-12-13T18:21:44.851Z,4.10
2022-12-13T18:24:12.565Z,3.10
2022-12-13T18:26:39.738Z,2.87
2022-12-13T18:29:06.813Z,3.00
2022-12-13T18:31:43.142Z,3.50
2022-12-13T18:34:13.422Z,2.90
2022-12-13T18:36:40.669Z,3.77
2022-12-13T18:39:10.966Z,4.20
2022-12-13T18:41:38.093Z,3.03
2022-12-13T18:44:08.298Z,2.70
2022-12-13T18:46:38.258Z,2.87
2022-12-13T18:49:06.698Z,2.93
2022-12-13T18:51:36.820Z,3.73
2022-12-13T18:54:04.220Z,2.70
2022-12-13T18:56:31.285Z,3.23
2022-12-13T18:58:59.519Z,1.60
2022-12-13T19:01:28.193Z,3.33
2022-12-13T19:03:55.331Z,2.37
2022-12-13T19:06:26.972Z,2.07
2022-12-13T19:08:57.945Z,2.13
2022-12-13T19:11:27.602Z,1.87
2022-12-13T19:13:55.705Z,0.83
2022-12-13T19:16:25.651Z,1.87
2022-12-13T19:18:53.068Z,2.33
2022-12-13T19:21:22.541Z,2.20
2022-12-13T19:23:55.835Z,3.20
2022-12-13T19:26:30.093Z,1.83
2022-12-13T19:28:58.845Z,2.43
2022-12-13T19:31:32.306Z,3.33
2022-12-13T19:34:02.079Z,1.37
2022-12-13T19:36:31.836Z,1.97
2022-12-13T19:38:59.855Z,1.57
2022-12-13T19:41:27.233Z,1.80
2022-12-13T19:43:54.800Z,1.80
2022-12-13T19:46:22.538Z,1.97
2022-12-13T19:48:50.462Z,1.97
2022-12-13T19:51:17.927Z,1.10
2022-12-13T19:53:45.197Z,3.70
2022-12-13T19:56:17.826Z,1.50
2022-12-13T19:58:47.026Z,3.67
2022-12-13T20:01:15.205Z,2.17
2022-12-13T20:03:48.545Z,1.60
2022-12-13T20:06:22.244Z,1.60
2022-12-13T20:08:50.175Z,3.73
2022-12-13T20:11:21.689Z,3.03
2022-12-13T20:13:52.958Z,1.53
2022-12-13T20:16:23.673Z,1.93
2022-12-13T20:18:59.816Z,0.67
2022-12-13T20:21:29.397Z,2.70
2022-12-13T20:23:57.968Z,2.50
2022-12-13T20:26:28.348Z,2.53
2022-12-13T20:28:56.424Z,2.03
2022-12-13T20:31:28.235Z,1.33
2022-12-13T20:34:02.410Z,0.97
2022-12-13T20:36:31.689Z,1.90
2022-12-13T20:39:02.099Z,1.60
2022-12-13T20:41:33.155Z,2.53
2022-12-13T20:44:03.111Z,2.10
2022-12-13T20:46:31.041Z,2.23
2022-12-13T20:49:01.870Z,1.40
2022-12-13T20:51:32.033Z,0.73
2022-12-13T20:53:59.186Z,0.77
2022-12-13T20:56:35.182Z,2.53
2022-12-13T20:59:08.568Z,3.93
2022-12-13T21:01:41.029Z,3.27
2022-12-13T21:04:10.342Z,3.73
2022-12-13T21:06:40.724Z,1.70
2022-12-13T21:09:09.863Z,2.63
2022-12-13T21:11:47.529Z,2.10
2022-12-13T21:14:30.075Z,3.20
2022-12-13T21:17:00.616Z,3.07
2022-12-13T21:19:39.512Z,4.43
2022-12-13T21:22:08.015Z,2.40
2022-12-13T21:24:35.158Z,3.83
2022-12-13T21:27:02.297Z,3.03
2022-12-13T21:29:29.557Z,2.33
2022-12-13T21:31:56.641Z,2.90
2022-12-13T21:34:23.972Z,4.33
2022-12-13T21:36:52.796Z,2.17
2022-12-13T21:39:28.393Z,1.60
2022-12-13T21:41:56.426Z,2.90
2022-12-13T21:44:23.662Z,2.50
2022-12-13T21:49:38.293Z,2.70
2022-12-13T21:52:08.294Z,2.00
2022-12-13T21:54:35.239Z,2.80
2022-12-13T21:57:20.458Z,2.00
2022-12-13T21:59:47.471Z,3.03
2022-12-13T22:02:18.535Z,1.40
2022-12-13T22:04:55.312Z,1.83
2022-12-13T22:07:31.027Z,1.37
2022-12-13T22:10:00.105Z,2.00
2022-12-13T22:12:39.895Z,2.03
2022-12-13T22:15:14.202Z,1.73
2022-12-13T22:17:43.285Z,1.63
2022-12-13T22:20:13.880Z,1.73
2022-12-13T22:22:43.103Z,1.20
2022-12-13T22:25:10.853Z,1.23
2022-12-13T22:27:38.213Z,1.03
2022-12-13T22:30:06.119Z,1.70
2022-12-13T22:32:33.964Z,2.27
2022-12-13T22:35:01.124Z,1.40
2022-12-13T22:37:28.219Z,1.97
2022-12-13T22:39:55.305Z,2.13
2022-12-13T22:42:22.535Z,0.90
2022-12-13T22:44:49.639Z,0.80
2022-12-13T22:47:16.757Z,2.87
2022-12-13T22:49:43.747Z,2.30
2022-12-13T22:52:10.968Z,1.60
2022-12-13T22:54:38.080Z,1.73
2022-12-13T22:57:05.344Z,1.53
2022-12-13T22:59:33.066Z,0.93
2022-12-13T23:02:02.962Z,1.20
2022-12-13T23:04:31.980Z,3.30
2022-12-13T23:06:59.347Z,1.87
2022-12-13T23:09:26.482Z,1.43
2022-12-13T23:12:11.891Z,1.23
2022-12-13T23:14:38.957Z,1.70
2022-12-13T23:17:06.044Z,0.40
2022-12-13T23:19:50.944Z,1.07
2022-12-13T23:22:25.350Z,0.93
2022-12-13T23:24:53.760Z,1.53
2022-12-13T23:27:23.688Z,3.87
2022-12-13T23:29:50.727Z,2.27
2022-12-13T23:32:19.215Z,1.70
2022-12-13T23:35:05.173Z,1.30
2022-12-13T23:37:32.188Z,1.27
2022-12-13T23:39:59.236Z,1.70
2022-12-13T23:42:30.310Z,0.90
2022-12-13T23:44:57.623Z,1.70
2022-12-13T23:47:24.716Z,0.40
2022-12-13T23:50:12.112Z,1.77
2022-12-13T23:52:57.000Z,2.10
2022-12-13T23:55:24.060Z,2.00
2022-12-13T23:57:51.088Z,2.03
